createdAt,value
2023-07-25T00:00:54.863Z,945.3018799
2023-07-25T00:01:56.798Z,945.2625122
2023-07-25T00:02:57.944Z,945.2565918
2023-07-25T00:03:59.112Z,945.260498
2023-07-25T00:05:30.702Z,945.2982788
2023-07-25T00:06:32.632Z,945.2843628
2023-07-25T00:07:34.688Z,945.3046875
2023-07-25T00:08:35.867Z,945.2909546
2023-07-25T00:09:37.008Z,945.2957764
2023-07-25T00:10:38.148Z,945.3008423
2023-07-25T00:11:40.207Z,945.1956177
2023-07-25T00:12:42.148Z,945.0702515
2023-07-25T00:13:43.231Z,945.0178833
2023-07-25T00:14:44.402Z,944.9945068
2023-07-25T00:15:45.526Z,944.9857788
2023-07-25T00:16:46.702Z,944.9818726
2023-07-25T00:17:47.666Z,945.0029907
2023-07-25T00:18:48.674Z,944.8943481
2023-07-25T00:19:49.799Z,944.9160767
2023-07-25T00:20:51.008Z,944.8900146
2023-07-25T00:21:52.918Z,944.8708496
2023-07-25T00:22:53.851Z,944.8795166
2023-07-25T00:23:54.974Z,944.871582
2023-07-25T00:24:56.117Z,944.9050293
2023-07-25T00:25:57.305Z,944.9021606
2023-07-25T00:26:58.580Z,944.8666992
2023-07-25T00:28:30.874Z,944.8168945
2023-07-25T00:29:31.985Z,944.8074341
2023-07-25T00:30:33.071Z,944.7806396
2023-07-25T00:31:35.058Z,944.7406006
2023-07-25T00:32:35.894Z,944.7672119
2023-07-25T00:33:37.084Z,944.8001709
2023-07-25T00:34:39.185Z,944.781311
2023-07-25T00:35:40.245Z,944.7970581
2023-07-25T00:36:41.275Z,944.7550049
2023-07-25T00:37:43.167Z,944.7346802
2023-07-25T00:38:44.484Z,944.7075195
2023-07-25T00:39:45.681Z,944.7667236
2023-07-25T00:40:46.718Z,944.7316284
2023-07-25T00:41:48.600Z,944.7470093
2023-07-25T00:42:49.775Z,944.8035889
2023-07-25T00:43:50.880Z,944.8510742
2023-07-25T00:44:52.046Z,944.8922119
2023-07-25T00:45:53.331Z,944.8713989
2023-07-25T00:46:54.297Z,944.885376
2023-07-25T00:47:55.414Z,944.9032593
2023-07-25T00:48:56.457Z,944.8325806
2023-07-25T00:49:57.657Z,944.8883057
2023-07-25T00:50:59.284Z,944.8703003
2023-07-25T00:52:31.915Z,944.8571777
2023-07-25T00:53:32.999Z,944.8356323
2023-07-25T00:54:34.234Z,944.798584
2023-07-25T00:55:35.420Z,944.8222046
2023-07-25T00:56:36.589Z,944.7828369
2023-07-25T00:57:37.850Z,944.7474365
2023-07-25T00:58:39.599Z,944.7376709
2023-07-25T00:59:40.709Z,944.7512207
2023-07-25T01:00:41.796Z,944.760498
2023-07-25T01:01:43.755Z,944.7853394
2023-07-25T01:02:44.980Z,944.8214722
2023-07-25T01:03:46.162Z,944.8644409
2023-07-25T01:04:47.185Z,944.8825073
2023-07-25T01:05:48.409Z,944.9368896
2023-07-25T01:06:50.154Z,944.9368896
2023-07-25T01:07:52.267Z,945.0310669
2023-07-25T01:08:53.504Z,945.0393677
2023-07-25T01:09:54.685Z,945.0616455
2023-07-25T01:10:55.881Z,945.0900269
2023-07-25T01:11:57.669Z,945.0656128
2023-07-25T01:12:59.202Z,945.0432739
2023-07-25T01:14:30.984Z,945.013916
2023-07-25T01:15:32.087Z,945.0388794
2023-07-25T01:16:33.325Z,944.9777832
2023-07-25T01:17:34.319Z,944.9904785
2023-07-25T01:18:35.377Z,945.0008545
2023-07-25T01:19:36.472Z,944.9689331
2023-07-25T01:20:37.598Z,944.9435425
2023-07-25T01:21:39.626Z,944.9770508
2023-07-25T01:22:41.588Z,944.9460449
2023-07-25T01:23:42.607Z,944.928894
2023-07-25T01:24:43.966Z,944.8820801
2023-07-25T01:25:45.035Z,944.861145
2023-07-25T01:26:46.135Z,944.8033447
2023-07-25T01:27:48.187Z,944.7744751
2023-07-25T01:28:49.360Z,944.7840576
2023-07-25T01:29:50.501Z,944.793457
2023-07-25T01:30:51.467Z,944.7449951
2023-07-25T01:31:53.199Z,944.796875
2023-07-25T01:32:54.437Z,944.7781372
2023-07-25T01:33:55.570Z,944.758606
2023-07-25T01:34:56.604Z,944.7185669
2023-07-25T01:35:58.665Z,944.7125244
2023-07-25T01:37:31.186Z,944.6673584
2023-07-25T01:38:32.337Z,944.6574707
2023-07-25T01:39:33.431Z,944.6270142
2023-07-25T01:40:34.537Z,944.5957642
2023-07-25T01:41:35.564Z,944.585144
2023-07-25T01:42:37.136Z,944.616272
2023-07-25T01:43:38.329Z,944.6133423
2023-07-25T01:44:39.544Z,944.5692139
2023-07-25T01:45:40.697Z,944.5563965
2023-07-25T01:46:41.727Z,944.5756226
2023-07-25T01:48:44.178Z,944.4943848
2023-07-25T01:49:46.203Z,944.538269
2023-07-25T01:50:47.389Z,944.4866943
2023-07-25T01:51:48.459Z,944.454895
2023-07-25T01:52:50.207Z,944.4065552
2023-07-25T01:53:51.307Z,944.3922119
2023-07-25T01:54:52.441Z,944.4053345
2023-07-25T01:55:53.577Z,944.40625
2023-07-25T01:56:54.821Z,944.3939209
2023-07-25T01:57:56.643Z,944.3855591
2023-07-25T01:58:57.638Z,944.3270264
2023-07-25T02:00:29.566Z,944.2935791
2023-07-25T02:01:31.002Z,944.2368164
2023-07-25T02:02:32.794Z,944.1876831
2023-07-25T02:03:33.766Z,944.2845459
2023-07-25T02:04:34.782Z,944.2966919
2023-07-25T02:05:36.620Z,944.3699341
2023-07-25T02:06:37.712Z,944.3504028
2023-07-25T02:07:38.871Z,944.40625
2023-07-25T02:08:40.031Z,944.4515381
2023-07-25T02:09:41.085Z,944.434082
2023-07-25T02:10:42.139Z,944.4071655
2023-07-25T02:11:43.134Z,944.4051514
2023-07-25T02:12:45.334Z,944.3897705
2023-07-25T02:13:46.496Z,944.3426514
2023-07-25T02:14:47.650Z,944.3353882
2023-07-25T02:15:48.829Z,944.2860718
2023-07-25T02:16:50.014Z,944.2207642
2023-07-25T02:17:50.913Z,944.2062378
2023-07-25T02:18:52.102Z,944.1838379
2023-07-25T02:19:53.273Z,944.1512451
2023-07-25T02:20:54.439Z,944.1606445
2023-07-25T02:21:55.592Z,944.142395
2023-07-25T02:22:57.176Z,944.0979614
2023-07-25T02:24:29.206Z,944.0875854
2023-07-25T02:25:30.361Z,944.1212769
2023-07-25T02:26:31.536Z,944.1045532
2023-07-25T02:27:32.693Z,944.1549072
2023-07-25T02:28:34.671Z,944.1560669
2023-07-25T02:29:35.620Z,944.1506348
2023-07-25T02:30:36.728Z,944.1467285
2023-07-25T02:31:37.811Z,944.1342163
2023-07-25T02:32:39.759Z,944.0526733
2023-07-25T02:33:40.793Z,944.0144043
2023-07-25T02:34:41.808Z,944.0229492
2023-07-25T02:35:42.823Z,944.0139771
2023-07-25T02:36:44.226Z,944.0101318
2023-07-25T02:37:46.187Z,944.0298462
2023-07-25T02:38:47.312Z,944.0158081
2023-07-25T02:39:48.427Z,944.0328979
2023-07-25T02:40:49.495Z,944.0129395
2023-07-25T02:41:50.469Z,943.9717407
2023-07-25T02:42:52.305Z,943.9487305
2023-07-25T02:43:53.395Z,943.9696655
2023-07-25T02:44:54.581Z,943.9550171
2023-07-25T02:45:55.653Z,943.9576416
2023-07-25T02:46:56.684Z,944.0075073
2023-07-25T02:47:58.206Z,943.9994507
2023-07-25T02:49:29.919Z,943.9620361
2023-07-25T02:50:31.050Z,943.9627075
2023-07-25T02:51:32.426Z,943.9960938
2023-07-25T02:52:33.272Z,943.9796753
2023-07-25T02:53:34.385Z,943.9436035
2023-07-25T02:54:35.448Z,943.9656372
2023-07-25T02:55:36.579Z,943.9268799
2023-07-25T02:56:37.723Z,943.9639893
2023-07-25T02:57:38.912Z,943.9450073
2023-07-25T02:58:40.043Z,943.942627
2023-07-25T02:59:41.704Z,943.9034424
2023-07-25T03:00:42.820Z,943.9533081
2023-07-25T03:01:44.333Z,943.9718018
2023-07-25T03:02:46.317Z,943.973877
2023-07-25T03:03:47.359Z,943.9464111
2023-07-25T03:04:48.371Z,944.0015869
2023-07-25T03:05:49.407Z,943.9543457
2023-07-25T03:06:51.196Z,943.921875
2023-07-25T03:07:53.195Z,943.9543457
2023-07-25T03:08:54.357Z,943.9299927
2023-07-25T03:09:55.440Z,943.9196167
2023-07-25T03:10:56.513Z,943.8739624
2023-07-25T03:11:57.966Z,943.9709473
2023-07-25T03:13:30.251Z,943.9784546
2023-07-25T03:14:31.413Z,943.9969482
2023-07-25T03:15:32.571Z,943.9465332
2023-07-25T03:16:33.698Z,943.9403076
2023-07-25T03:17:34.854Z,943.9381104
2023-07-25T03:18:35.835Z,943.9474487
2023-07-25T03:19:37.052Z,943.9154663
2023-07-25T03:20:38.193Z,943.9935913
2023-07-25T03:21:39.556Z,943.9691162
2023-07-25T03:22:41.156Z,943.9855957
2023-07-25T03:23:42.218Z,943.9795532
2023-07-25T03:24:43.393Z,943.973877
2023-07-25T03:25:44.547Z,944.0253296
2023-07-25T03:26:45.621Z,944.038269
2023-07-25T03:27:46.693Z,944.0147095
2023-07-25T03:28:47.816Z,944.0727539
2023-07-25T03:29:49.728Z,944.071106
2023-07-25T03:30:50.884Z,944.0826416
2023-07-25T03:31:51.990Z,944.0640869
2023-07-25T03:32:53.791Z,944.0509644
2023-07-25T03:33:54.922Z,944.0979614
2023-07-25T03:34:55.985Z,944.0658569
2023-07-25T03:35:56.999Z,943.9712524
2023-07-25T03:37:30.181Z,943.986145
2023-07-25T03:38:31.327Z,943.9483032
2023-07-25T03:39:32.481Z,943.9782715
2023-07-25T03:40:33.462Z,943.9651489
2023-07-25T03:41:34.837Z,944.0507813
2023-07-25T03:42:35.736Z,944.0393677
2023-07-25T03:43:37.736Z,944.0754395
2023-07-25T03:44:38.967Z,944.0701294
2023-07-25T03:45:40.146Z,944.079834
2023-07-25T03:46:41.185Z,944.1032715
2023-07-25T03:47:42.221Z,944.0296021
2023-07-25T03:48:43.281Z,944.0203247
2023-07-25T03:49:44.386Z,944.0820313
2023-07-25T03:50:45.561Z,944.0637207
2023-07-25T03:51:46.609Z,944.0621338
2023-07-25T03:52:47.601Z,944.1087646
2023-07-25T03:53:49.648Z,944.1031494
2023-07-25T03:54:50.874Z,944.1297607
2023-07-25T03:55:51.965Z,944.1322021
2023-07-25T03:56:53.179Z,944.1835938
2023-07-25T03:57:55.122Z,944.1738892
2023-07-25T03:58:56.158Z,944.1793823
2023-07-25T03:59:57.685Z,944.210022
2023-07-25T04:01:29.916Z,944.2245483
2023-07-25T04:02:31.720Z,944.1994019
2023-07-25T04:03:33.784Z,944.1835938
2023-07-25T04:04:34.825Z,944.2105713
2023-07-25T04:05:35.735Z,944.2078247
2023-07-25T04:06:36.812Z,944.1977539
2023-07-25T04:07:38.874Z,944.2230225
2023-07-25T04:08:40.812Z,944.1931152
2023-07-25T04:09:41.876Z,944.2359619
2023-07-25T04:10:42.904Z,944.2290649
2023-07-25T04:11:44.372Z,944.2782593
2023-07-25T04:12:45.473Z,944.3001709
2023-07-25T04:13:47.297Z,944.3132935
2023-07-25T04:14:48.445Z,944.2943726
2023-07-25T04:15:49.592Z,944.2766113
2023-07-25T04:16:50.630Z,944.2592773
2023-07-25T04:17:51.780Z,944.2839355
2023-07-25T04:18:52.828Z,944.288147
2023-07-25T04:19:54.668Z,944.2636108
2023-07-25T04:20:55.844Z,944.2595215
2023-07-25T04:21:57.338Z,944.2380981
2023-07-25T04:23:29.654Z,944.2545166
2023-07-25T04:24:30.894Z,944.241394
2023-07-25T04:25:32.016Z,944.2862549
2023-07-25T04:26:33.183Z,944.2237549
2023-07-25T04:27:34.301Z,944.277832
2023-07-25T04:28:35.288Z,944.3278198
2023-07-25T04:29:36.343Z,944.3704834
2023-07-25T04:30:38.620Z,944.3442383
2023-07-25T04:31:39.755Z,944.392395
2023-07-25T04:32:41.013Z,944.3790894
2023-07-25T04:33:42.702Z,944.3814697
2023-07-25T04:34:44.130Z,944.40448
2023-07-25T04:35:45.143Z,944.4533081
2023-07-25T04:36:47.204Z,944.4590454
2023-07-25T04:37:49.224Z,944.4562988
2023-07-25T04:38:50.407Z,944.4506226
2023-07-25T04:39:52.171Z,944.4328003
2023-07-25T04:40:53.159Z,944.4431763
2023-07-25T04:41:54.197Z,944.4400635
2023-07-25T04:42:55.345Z,944.4400635
2023-07-25T04:44:28.193Z,944.4093628
2023-07-25T04:45:29.285Z,944.4405518
2023-07-25T04:46:30.349Z,944.4412231
2023-07-25T04:47:32.206Z,944.4467163
2023-07-25T04:48:33.226Z,944.4255371
2023-07-25T04:49:34.376Z,944.5014648
2023-07-25T04:50:35.560Z,944.4899902
2023-07-25T04:51:36.660Z,944.4957886
2023-07-25T04:52:37.705Z,944.4464111
2023-07-25T04:53:39.769Z,944.4802856
2023-07-25T04:54:40.983Z,944.4604492
2023-07-25T04:55:42.212Z,944.4959106
2023-07-25T04:56:43.427Z,944.5197144
2023-07-25T04:57:44.648Z,944.5271606
2023-07-25T04:58:45.721Z,944.5679932
2023-07-25T04:59:46.732Z,944.5623169
2023-07-25T05:00:48.816Z,944.5570068
2023-07-25T05:01:49.983Z,944.6156006
2023-07-25T05:02:51.253Z,944.6143188
2023-07-25T05:03:52.759Z,944.6176758
2023-07-25T05:04:53.795Z,944.6173706
2023-07-25T05:05:54.826Z,944.6109619
2023-07-25T05:06:56.120Z,944.5775146
2023-07-25T05:08:28.790Z,944.5928345
2023-07-25T05:09:30.729Z,944.6377563
2023-07-25T05:10:31.764Z,944.6466675
2023-07-25T05:11:33.185Z,944.6723633
2023-07-25T05:12:34.068Z,944.6515503
2023-07-25T05:13:36.250Z,944.696106
2023-07-25T05:14:37.449Z,944.708252
2023-07-25T05:15:38.652Z,944.7218628
2023-07-25T05:16:39.747Z,944.7253418
2023-07-25T05:17:40.792Z,944.7276611
2023-07-25T05:18:41.968Z,944.7625122
2023-07-25T05:19:43.219Z,944.736084
2023-07-25T05:20:44.440Z,944.7575684
2023-07-25T05:21:45.524Z,944.7732544
2023-07-25T05:22:46.578Z,944.7521973
2023-07-25T05:23:48.204Z,944.7625122
2023-07-25T05:24:49.544Z,944.81604
2023-07-25T05:25:50.671Z,944.836792
2023-07-25T05:26:51.899Z,944.8654785
2023-07-25T05:27:53.052Z,944.8114014
2023-07-25T05:28:54.165Z,944.84021
2023-07-25T05:29:55.264Z,944.8481445
2023-07-25T05:31:28.141Z,944.8931274
2023-07-25T05:32:29.332Z,944.8825684
2023-07-25T05:33:31.208Z,944.8892822
2023-07-25T05:34:33.241Z,944.8753052
2023-07-25T05:35:34.212Z,944.9121094
2023-07-25T05:36:35.378Z,944.9401855
2023-07-25T05:37:37.249Z,944.9417114
2023-07-25T05:38:38.596Z,944.9424438
2023-07-25T05:39:39.707Z,944.977417
2023-07-25T05:40:40.835Z,944.9495239
2023-07-25T05:41:41.845Z,944.9603271
2023-07-25T05:42:43.056Z,944.9223633
2023-07-25T05:43:45.238Z,944.907959
2023-07-25T05:44:46.427Z,944.9564209
2023-07-25T05:45:47.646Z,944.8724976
2023-07-25T05:46:48.596Z,944.8961182
2023-07-25T05:47:49.736Z,944.9268799
2023-07-25T05:48:50.865Z,944.9325562
2023-07-25T05:49:52.045Z,944.9187622
2023-07-25T05:50:53.417Z,944.9851685
2023-07-25T05:51:54.411Z,944.911377
2023-07-25T05:52:55.475Z,944.9896851
2023-07-25T05:54:27.801Z,944.9517212
2023-07-25T05:55:28.952Z,945.0203247
2023-07-25T05:56:30.125Z,945.0956421
2023-07-25T05:57:31.246Z,945.0303345
2023-07-25T05:58:32.236Z,945.0345459
2023-07-25T05:59:34.168Z,945.0845337
2023-07-25T06:00:35.528Z,945.0320435
2023-07-25T06:01:36.906Z,944.9845581
2023-07-25T06:02:37.984Z,945.0317993
2023-07-25T06:03:39.108Z,945.1087646
2023-07-25T06:04:40.728Z,945.0767212
2023-07-25T06:05:41.777Z,945.0635986
2023-07-25T06:06:46.765Z,945.071167
2023-07-25T06:07:48.696Z,945.0697632
2023-07-25T06:08:49.855Z,945.0653076
2023-07-25T06:09:50.964Z,945.0599365
2023-07-25T06:10:52.031Z,945.005127
2023-07-25T06:11:53.144Z,945.0595093
2023-07-25T06:12:54.270Z,945.1026001
2023-07-25T06:13:56.728Z,945.0644531
2023-07-25T06:15:28.358Z,945.0267334
2023-07-25T06:16:29.635Z,945.0273438
2023-07-25T06:17:30.417Z,945.0048218
2023-07-25T06:18:31.567Z,945.0609131
2023-07-25T06:19:32.711Z,945.0195313
2023-07-25T06:20:33.934Z,945.0661011
2023-07-25T06:21:35.118Z,945.0424805
2023-07-25T06:22:36.171Z,945.0935059
2023-07-25T06:23:37.346Z,945.0756226
2023-07-25T06:24:38.671Z,945.0688477
2023-07-25T06:25:39.699Z,945.0432739
2023-07-25T06:26:40.862Z,945.0480347
2023-07-25T06:27:42.105Z,945.0864258
2023-07-25T06:28:43.012Z,945.0806274
2023-07-25T06:29:44.310Z,944.9726563
2023-07-25T06:30:46.182Z,944.9906006
2023-07-25T06:31:47.220Z,944.9331055
2023-07-25T06:32:48.469Z,944.9927979
2023-07-25T06:33:49.515Z,944.8934937
2023-07-25T06:34:51.226Z,944.9960938
2023-07-25T06:35:52.258Z,944.9989014
2023-07-25T06:36:53.500Z,944.9667358
2023-07-25T06:37:55.257Z,945.038269
2023-07-25T06:39:27.037Z,945.0966187
2023-07-25T06:40:28.289Z,945.0323486
2023-07-25T06:41:29.531Z,945.1060791
2023-07-25T06:42:30.366Z,945.0559082
2023-07-25T06:43:31.580Z,945.0527344
2023-07-25T06:44:33.354Z,945.0610962
2023-07-25T06:45:34.427Z,945.0638428
2023-07-25T06:46:35.446Z,945.0175171
2023-07-25T06:47:36.450Z,945.0648193
2023-07-25T06:48:38.326Z,945.0374146
2023-07-25T06:49:40.264Z,945.0387573
2023-07-25T06:50:41.395Z,945.0463867
2023-07-25T06:51:42.492Z,945.0125122
2023-07-25T06:52:43.445Z,944.9637451
2023-07-25T06:53:44.658Z,945.0021362
2023-07-25T06:54:46.246Z,945.0170288
2023-07-25T06:55:47.239Z,945.0077515
2023-07-25T06:56:49.237Z,944.9996948
2023-07-25T06:57:50.293Z,944.9926758
2023-07-25T06:58:51.343Z,945.0042114
2023-07-25T06:59:53.152Z,945.0046997
2023-07-25T07:00:54.314Z,944.9671631
2023-07-25T07:02:26.412Z,944.9790039
2023-07-25T07:03:27.479Z,944.9656372
2023-07-25T07:04:29.349Z,944.9447021
2023-07-25T07:05:31.202Z,944.9726563
2023-07-25T07:06:32.329Z,944.9509277
2023-07-25T07:07:34.251Z,944.9540405
2023-07-25T07:08:36.288Z,944.9684448
2023-07-25T07:09:37.369Z,944.9263916
2023-07-25T07:10:38.565Z,944.9135132
2023-07-25T07:11:39.647Z,944.8979492
2023-07-25T07:12:40.711Z,944.9039307
2023-07-25T07:13:41.869Z,944.9376831
2023-07-25T07:14:43.987Z,944.9199829
2023-07-25T07:15:45.630Z,944.9748535
2023-07-25T07:16:46.688Z,944.8735962
2023-07-25T07:17:47.654Z,944.869873
2023-07-25T07:18:49.255Z,944.8239136
2023-07-25T07:19:50.390Z,944.8418579
2023-07-25T07:20:51.457Z,944.8265381
2023-07-25T07:21:52.407Z,944.8312378
2023-07-25T07:22:54.156Z,944.7583618
2023-07-25T07:24:26.761Z,944.7965698
2023-07-25T07:25:27.788Z,944.9165649
2023-07-25T07:26:28.745Z,944.8092041
2023-07-25T07:27:29.722Z,944.7457275
2023-07-25T07:28:30.671Z,944.7576294
2023-07-25T07:29:32.297Z,944.8081055
2023-07-25T07:30:33.342Z,944.7462769
2023-07-25T07:31:34.499Z,944.7821045
2023-07-25T07:32:35.451Z,944.8685913
2023-07-25T07:33:37.146Z,944.9370117
2023-07-25T07:34:38.832Z,944.9439087
2023-07-25T07:35:39.950Z,944.9141235
2023-07-25T07:36:41.063Z,944.939209
2023-07-25T07:37:42.705Z,944.9765625
2023-07-25T07:38:43.919Z,944.9663086
2023-07-25T07:39:45.688Z,945.0300293
2023-07-25T07:40:46.645Z,945.0530396
2023-07-25T07:41:47.694Z,944.9885864
2023-07-25T07:42:48.792Z,944.9561768
2023-07-25T07:43:49.849Z,944.9448242
2023-07-25T07:44:51.677Z,944.9478149
2023-07-25T07:45:52.663Z,944.9655762
2023-07-25T07:46:53.745Z,944.9246216
2023-07-25T07:48:25.624Z,944.8781128
2023-07-25T07:49:26.824Z,944.9163818
2023-07-25T07:50:27.945Z,944.928772
2023-07-25T07:51:29.302Z,944.9326782
2023-07-25T07:52:42.133Z,944.9152832
2023-07-25T07:53:31.931Z,944.9498291
2023-07-25T07:54:33.730Z,944.9296265
2023-07-25T07:55:35.780Z,944.9343872
2023-07-25T07:56:36.768Z,944.9050293
2023-07-25T07:57:37.745Z,944.9664307
2023-07-25T07:58:38.873Z,944.9311523
2023-07-25T07:59:40.098Z,944.9401855
2023-07-25T08:00:41.783Z,944.9545288
2023-07-25T08:01:42.924Z,944.8954468
2023-07-25T08:02:44.888Z,944.937439
2023-07-25T08:03:46.053Z,944.9540405
2023-07-25T08:04:47.740Z,944.9180298
2023-07-25T08:05:48.881Z,944.9597168
2023-07-25T08:06:50.884Z,944.946228
2023-07-25T08:07:52.715Z,944.9202881
2023-07-25T08:08:53.661Z,944.909668
2023-07-25T08:10:25.154Z,944.9468994
2023-07-25T08:11:26.330Z,944.935791
2023-07-25T08:12:28.024Z,944.8998413
2023-07-25T08:13:28.915Z,944.8998413
2023-07-25T08:14:29.891Z,944.8398438
2023-07-25T08:15:31.707Z,944.8356323
2023-07-25T08:16:32.677Z,944.8459473
2023-07-25T08:17:33.700Z,944.8127441
2023-07-25T08:18:34.588Z,944.8440552
2023-07-25T08:19:35.559Z,944.8549805
2023-07-25T08:20:36.540Z,944.8467407
2023-07-25T08:21:37.820Z,944.8701782
2023-07-25T08:22:39.188Z,944.8733521
2023-07-25T08:23:40.174Z,944.8743896
2023-07-25T08:24:41.809Z,944.8580322
2023-07-25T08:25:42.786Z,944.8596802
2023-07-25T08:26:44.659Z,944.8590698
2023-07-25T08:27:45.701Z,944.8167114
2023-07-25T08:28:46.615Z,944.8378296
2023-07-25T08:29:48.216Z,944.8474731
2023-07-25T08:30:49.252Z,944.8684082
2023-07-25T08:31:51.176Z,944.8146973
2023-07-25T08:32:52.153Z,944.7633667
2023-07-25T08:33:52.998Z,944.7895508
2023-07-25T08:35:25.667Z,944.7633057
2023-07-25T08:36:26.653Z,944.713623
2023-07-25T08:37:28.205Z,944.6950073
2023-07-25T08:38:29.754Z,944.7623291
2023-07-25T08:39:30.696Z,944.7160645
2023-07-25T08:40:31.682Z,944.7792358
2023-07-25T08:41:33.081Z,944.7185669
2023-07-25T08:42:33.648Z,944.6610718
2023-07-25T08:43:34.676Z,944.7598267
2023-07-25T08:44:35.610Z,944.7400513
2023-07-25T08:45:37.234Z,944.7246704
2023-07-25T08:46:38.214Z,944.7195435
2023-07-25T08:47:39.274Z,944.7700195
2023-07-25T08:48:40.230Z,944.7686768
2023-07-25T08:49:42.190Z,944.7581787
2023-07-25T08:50:43.119Z,944.796814
2023-07-25T08:51:44.272Z,944.743103
2023-07-25T08:52:45.210Z,944.8187256
2023-07-25T08:53:46.174Z,944.7823486
2023-07-25T08:54:47.678Z,944.9060059
2023-07-25T08:55:49.200Z,944.9373169
2023-07-25T08:56:50.163Z,944.8815918
2023-07-25T08:57:51.688Z,944.8388062
2023-07-25T08:58:52.656Z,944.8571777
2023-07-25T09:00:24.449Z,944.8566895
2023-07-25T09:01:25.441Z,944.8290405
2023-07-25T09:02:27.209Z,944.9085693
2023-07-25T09:03:28.247Z,944.8236084
2023-07-25T09:04:29.138Z,944.770752
2023-07-25T09:05:31.007Z,944.8121948
2023-07-25T09:06:32.668Z,944.8793945
2023-07-25T09:07:33.713Z,944.8120117
2023-07-25T09:08:35.796Z,944.7636719
2023-07-25T09:09:36.728Z,944.8180542
2023-07-25T09:10:37.759Z,944.817627
2023-07-25T09:11:38.777Z,944.7963867
2023-07-25T09:12:39.759Z,944.8852539
2023-07-25T09:13:40.782Z,944.8621826
2023-07-25T09:14:41.767Z,944.8328247
2023-07-25T09:15:43.985Z,944.8330688
2023-07-25T09:16:45.004Z,944.8151855
2023-07-25T09:17:46.077Z,944.8638916
2023-07-25T09:18:47.034Z,944.8856812
2023-07-25T09:19:48.034Z,944.8599854
2023-07-25T09:20:48.984Z,944.9118652
2023-07-25T09:21:49.917Z,944.9146729
2023-07-25T09:22:50.857Z,944.8356323
2023-07-25T09:23:51.773Z,944.8256836
2023-07-25T09:24:53.301Z,944.9690552
2023-07-25T09:26:25.637Z,945.0057983
2023-07-25T09:27:26.589Z,945.1001587
2023-07-25T09:28:27.516Z,945.1862793
2023-07-25T09:29:28.471Z,945.2240601
2023-07-25T09:30:29.446Z,945.2467041
2023-07-25T09:31:31.532Z,945.2022095
2023-07-25T09:32:32.206Z,945.222168
2023-07-25T09:33:33.112Z,945.1902466
2023-07-25T09:34:35.306Z,945.2058105
2023-07-25T09:35:35.690Z,945.1895142
2023-07-25T09:36:36.694Z,945.2531738
2023-07-25T09:37:38.290Z,945.2164307
2023-07-25T09:38:39.349Z,945.2588501
2023-07-25T09:39:40.338Z,945.2540894
2023-07-25T09:40:41.263Z,945.2737427
2023-07-25T09:41:42.242Z,945.2681885
2023-07-25T09:42:43.330Z,945.2801514
2023-07-25T09:43:44.215Z,945.2890625
2023-07-25T09:44:45.698Z,945.3250732
2023-07-25T09:45:47.207Z,945.3164063
2023-07-25T09:46:48.195Z,945.3057861
2023-07-25T09:47:49.168Z,945.3156128
2023-07-25T09:48:50.140Z,945.3088989
2023-07-25T09:49:51.100Z,945.3137207
2023-07-25T09:50:52.140Z,945.3347168
2023-07-25T09:52:23.854Z,945.3721924
2023-07-25T09:53:24.864Z,945.4068604
2023-07-25T09:54:26.690Z,945.3400269
2023-07-25T09:55:27.642Z,945.3308105
2023-07-25T09:56:29.213Z,945.3585815
2023-07-25T09:57:30.276Z,945.4018555
2023-07-25T09:58:31.268Z,945.4451294
2023-07-25T09:59:32.228Z,945.5045166
2023-07-25T10:00:33.733Z,945.451416
2023-07-25T10:01:35.097Z,945.3986816
2023-07-25T10:02:35.695Z,945.4545288
2023-07-25T10:03:36.741Z,945.4378052
2023-07-25T10:04:37.640Z,945.3861084
2023-07-25T10:05:39.256Z,945.4699097
2023-07-25T10:06:40.215Z,945.3654175
2023-07-25T10:07:41.703Z,945.3684082
2023-07-25T10:08:42.742Z,945.3546753
2023-07-25T10:09:44.021Z,945.3869629
2023-07-25T10:10:45.121Z,945.3407593
2023-07-25T10:11:46.042Z,945.4059448
2023-07-25T10:12:47.045Z,945.4128418
2023-07-25T10:13:47.992Z,945.4232178
2023-07-25T10:14:49.706Z,945.3978271
2023-07-25T10:15:51.239Z,945.4581299
2023-07-25T10:16:52.658Z,945.4435425
2023-07-25T10:18:24.133Z,945.4404907
2023-07-25T10:19:25.067Z,945.4501343
2023-07-25T10:20:26.026Z,945.4495239
2023-07-25T10:21:26.959Z,945.5020142
2023-07-25T10:22:27.886Z,945.411377
2023-07-25T10:23:28.845Z,945.4281006
2023-07-25T10:24:29.922Z,945.5390625
2023-07-25T10:25:30.784Z,945.5175171
2023-07-25T10:26:32.772Z,945.3954468
2023-07-25T10:27:33.713Z,945.3266602
2023-07-25T10:28:34.674Z,945.427002
2023-07-25T10:29:35.731Z,945.3950195
2023-07-25T10:30:36.697Z,945.3922729
2023-07-25T10:31:37.841Z,945.3746948
2023-07-25T10:32:39.245Z,945.3848267
2023-07-25T10:33:40.204Z,945.3739014
2023-07-25T10:34:41.709Z,945.3758545
2023-07-25T10:35:42.675Z,945.477478
2023-07-25T10:36:44.347Z,945.3716431
2023-07-25T10:37:45.318Z,945.3735352
2023-07-25T10:38:47.169Z,945.4032593
2023-07-25T10:39:48.123Z,945.3515625
2023-07-25T10:40:49.057Z,945.3728027
2023-07-25T10:41:50.080Z,945.3937988
2023-07-25T10:43:05.693Z,945.3864746
2023-07-25T10:43:52.472Z,945.3717041
2023-07-25T10:45:24.041Z,945.3428345
2023-07-25T10:46:26.078Z,945.3787231
2023-07-25T10:47:27.869Z,945.3486938
2023-07-25T10:48:28.823Z,945.4012451
2023-07-25T10:49:29.817Z,945.3789063
2023-07-25T10:50:30.816Z,945.3173218
2023-07-25T10:51:32.035Z,945.2988281
2023-07-25T10:52:32.793Z,945.3258057
2023-07-25T10:53:33.730Z,945.336792
2023-07-25T10:54:34.752Z,945.303894
2023-07-25T10:55:35.762Z,945.2778931
2023-07-25T10:56:37.754Z,945.2542114
2023-07-25T10:57:38.862Z,945.232666
2023-07-25T10:58:40.667Z,945.2251587
2023-07-25T10:59:41.566Z,945.2340698
2023-07-25T11:00:42.570Z,945.1749268
2023-07-25T11:01:43.548Z,945.1914673
2023-07-25T11:02:44.746Z,945.1677856
2023-07-25T11:03:46.303Z,945.1464233
2023-07-25T11:04:47.287Z,945.0965576
2023-07-25T11:05:48.198Z,945.1223145
2023-07-25T11:06:49.755Z,945.1273193
2023-07-25T11:07:50.884Z,945.0637207
2023-07-25T11:09:23.349Z,945.117981
2023-07-25T11:10:24.311Z,945.0541992
2023-07-25T11:11:25.260Z,944.9729614
2023-07-25T11:12:26.220Z,945.0220337
2023-07-25T11:13:27.372Z,944.9522095
2023-07-25T11:14:28.322Z,944.9274902
2023-07-25T11:15:45.902Z,944.9454956
2023-07-25T11:16:32.284Z,944.9428101
2023-07-25T11:17:33.164Z,944.9349365
2023-07-25T11:18:34.188Z,944.9490356
2023-07-25T11:19:35.171Z,944.9868164